Time;durP1;ratioP1;P1;durP2;ratioP2;P2;SDS_P1;SDS_P2;PMS_P1;PMS_P2;Temp;Humidity;BMP_temperature;BMP_pressure;BME280_temperature;BME280_humidity;BME280_pressure;Samples;Min_cycle;Max_cycle;Signal;HPM_P1;HPM_P2
2022/01/25 00:31:12;;;;;;;;;363.25;321.50;2.40;40.10;;;;;;5053933;28;8779;-66
2022/01/25 00:33:41;;;;;;;;;354.50;302.00;2.50;40.10;;;;;;5053900;28;8806;-66
2022/01/25 00:36:09;;;;;;;;;360.25;309.25;2.40;40.20;;;;;;5053528;28;8775;-64
2022/01/25 00:38:35;;;;;;;;;355.50;317.50;2.30;40.40;;;;;;5053484;28;8787;-64
2022/01/25 00:41:01;;;;;;;;;456.00;415.00;2.30;40.70;;;;;;5053479;28;8783;-63
2022/01/25 00:43:27;;;;;;;;;495.00;436.75;2.20;40.80;;;;;;5053378;28;8767;-63
2022/01/25 00:45:57;;;;;;;;;474.75;401.00;2.00;41.10;;;;;;5053710;28;8805;-64
2022/01/25 00:48:41;;;;;;;;;443.75;403.75;2.00;41.60;;;;;;5053780;28;8798;-65
2022/01/25 00:51:36;;;;;;;;;438.50;374.25;2.10;41.50;;;;;;5053702;28;8837;-67
2022/01/25 00:54:15;;;;;;;;;383.25;327.75;2.10;41.10;;;;;;5053178;28;9492;-66
2022/01/25 00:56:44;;;;;;;;;462.25;392.25;2.10;41.20;;;;;;5053323;28;8779;-64
2022/01/25 00:59:21;;;;;;;;;408.75;345.00;2.00;40.90;;;;;;5053605;28;8759;-61
2022/01/25 01:01:50;;;;;;;;;436.25;384.75;1.90;41.50;;;;;;5053176;28;8884;-64
2022/01/25 01:04:19;;;;;;;;;353.25;312.50;2.10;41.10;;;;;;5053235;28;8789;-66
2022/01/25 01:06:46;;;;;;;;;375.25;334.50;2.10;40.70;;;;;;5053209;28;8755;-64
2022/01/25 01:09:14;;;;;;;;;377.50;318.75;2.20;40.80;;;;;;5053403;28;9555;-64
2022/01/25 01:12:04;;;;;;;;;440.25;385.00;2.20;40.40;;;;;;5053018;28;8758;-66
2022/01/25 01:14:51;;;;;;;;;431.50;362.00;2.20;40.50;;;;;;5053176;28;8846;-64
2022/01/25 01:17:48;;;;;;;;;402.75;344.75;2.00;40.70;;;;;;5053300;28;8850;-67
2022/01/25 01:31:16;;;;;;;;;302.25;264.75;1.30;41.70;;;;;;5053139;28;8743;-64
2022/01/25 01:43:56;;;;;;;;;252.50;215.75;0.90;42.60;;;;;;5052906;28;8779;-68
2022/01/25 01:46:34;;;;;;;;;194.25;187.25;0.70;43.00;;;;;;5053071;28;9433;-64
2022/01/25 01:49:02;;;;;;;;;177.50;166.25;0.80;43.00;;;;;;5053286;28;8787;-66
2022/01/25 01:51:33;;;;;;;;;207.00;188.50;0.90;42.90;;;;;;5053103;28;8813;-65
2022/01/25 01:54:04;;;;;;;;;240.00;210.50;0.80;42.80;;;;;;5053021;28;8802;-65
2022/01/25 01:56:30;;;;;;;;;234.50;208.75;0.80;42.70;;;;;;5055744;28;8759;-66
2022/01/25 01:58:58;;;;;;;;;265.25;229.75;0.90;42.70;;;;;;5056421;28;8793;-63
2022/01/25 02:01:27;;;;;;;;;289.50;256.50;1.00;42.50;;;;;;5056608;28;8779;-64
2022/01/25 02:03:54;;;;;;;;;309.50;271.75;1.00;42.60;;;;;;5056510;28;8803;-66
2022/01/25 02:06:20;;;;;;;;;305.25;275.25;0.90;42.70;;;;;;5056229;28;8755;-65
2022/01/25 02:08:46;;;;;;;;;270.25;252.50;0.90;42.70;;;;;;5056310;28;8794;-64
2022/01/25 02:11:12;;;;;;;;;221.25;196.75;0.80;42.50;;;;;;5056245;28;8787;-65
2022/01/25 02:13:41;;;;;;;;;238.00;204.25;0.70;42.30;;;;;;5056049;28;8806;-66
2022/01/25 02:16:11;;;;;;;;;258.50;226.75;0.80;42.20;;;;;;5056375;28;8770;-65
2022/01/25 02:24:05;;;;;;;;;208.50;185.50;0.90;42.00;;;;;;5056057;28;8743;-64
2022/01/25 02:26:32;;;;;;;;;210.75;195.50;0.80;41.90;;;;;;5056123;28;8771;-67
2022/01/25 02:28:58;;;;;;;;;217.25;197.00;0.80;42.30;;;;;;5055802;28;8790;-65
2022/01/25 02:31:23;;;;;;;;;202.00;173.00;0.60;42.50;;;;;;5056089;28;8783;-66
2022/01/25 02:33:49;;;;;;;;;192.75;177.00;0.70;42.60;;;;;;5056069;28;9416;-66
2022/01/25 02:36:27;;;;;;;;;206.50;189.25;0.80;42.70;;;;;;5055743;28;8793;-66
2022/01/25 02:38:54;;;;;;;;;226.50;197.75;1.00;42.60;;;;;;5055673;28;8787;-67
2022/01/25 02:41:19;;;;;;;;;221.75;198.50;1.10;42.30;;;;;;5055901;28;8798;-66
2022/01/25 02:43:47;;;;;;;;;197.25;185.00;1.20;42.00;;;;;;5055681;28;8852;-65
2022/01/25 02:48:53;;;;;;;;;235.25;201.50;1.00;41.90;;;;;;5055837;28;8775;-66
2022/01/25 02:51:24;;;;;;;;;197.25;187.25;0.60;42.30;;;;;;5055753;28;8873;-65
2022/01/25 02:53:50;;;;;;;;;226.00;193.50;0.40;43.40;;;;;;5055053;28;8783;-64
2022/01/25 02:56:17;;;;;;;;;230.25;213.50;0.50;42.90;;;;;;5055348;28;8848;-65
2022/01/25 02:58:43;;;;;;;;;262.50;240.50;0.50;42.70;;;;;;5055485;28;9465;-66
2022/01/25 03:01:10;;;;;;;;;222.50;205.00;0.50;42.90;;;;;;5055253;28;8808;-62
2022/01/25 03:03:36;;;;;;;;;248.00;221.50;0.50;42.90;;;;;;5055422;28;8783;-65
2022/01/25 03:06:03;;;;;;;;;251.00;219.50;0.70;42.50;;;;;;5054950;28;8790;-65
2022/01/25 03:08:29;;;;;;;;;237.00;206.75;0.70;42.40;;;;;;5054495;28;8782;-65
2022/01/25 03:10:54;;;;;;;;;231.25;206.25;0.60;43.20;;;;;;5055074;28;8798;-62
2022/01/25 03:13:25;;;;;;;;;265.50;228.75;0.70;43.10;;;;;;5054995;28;8807;-64
2022/01/25 03:18:54;;;;;;;;;275.25;254.25;0.50;42.40;;;;;;5055307;28;8818;-63
2022/01/25 03:23:44;;;;;;;;;250.00;224.25;0.50;42.60;;;;;;5055138;28;8865;-66
2022/01/25 03:26:10;;;;;;;;;202.00;172.00;0.50;42.60;;;;;;5055087;28;9463;-63
2022/01/25 03:28:36;;;;;;;;;185.25;161.00;0.60;42.40;;;;;;5054687;28;8775;-67
2022/01/25 03:31:02;;;;;;;;;150.75;141.00;0.60;42.30;;;;;;5054764;28;8759;-65
2022/01/25 03:33:28;;;;;;;;;149.75;129.75;0.70;42.00;;;;;;5054594;28;8876;-64
2022/01/25 03:35:53;;;;;;;;;157.50;140.00;0.60;42.10;;;;;;5054637;28;8770;-65
2022/01/25 03:38:19;;;;;;;;;146.00;123.25;0.60;42.20;;;;;;5054531;28;8989;-67
2022/01/25 03:40:46;;;;;;;;;166.25;147.00;0.60;42.10;;;;;;5054526;28;8758;-64
2022/01/25 03:43:14;;;;;;;;;187.75;169.00;0.50;42.20;;;;;;5054443;28;8800;-65
2022/01/25 03:45:43;;;;;;;;;188.00;169.75;0.50;42.50;;;;;;5054406;28;8889;-66
2022/01/25 03:50:39;;;;;;;;;254.25;227.25;0.40;42.70;;;;;;5054382;28;8791;-66
2022/01/25 03:53:10;;;;;;;;;254.00;226.75;0.20;43.20;;;;;;5054442;28;8759;-66
2022/01/25 03:55:36;;;;;;;;;235.75;206.25;-0.20;44.40;;;;;;5054467;28;8844;-65
2022/01/25 03:58:03;;;;;;;;;222.50;204.75;-0.40;45.30;;;;;;5053164;28;8781;-64
2022/01/25 04:00:29;;;;;;;;;265.25;226.00;-0.80;46.40;;;;;;5054154;28;8852;-63
2022/01/25 04:03:01;;;;;;;;;265.50;227.50;-0.60;46.00;;;;;;5053973;28;8795;-66
2022/01/25 04:05:38;;;;;;;;;250.50;221.50;-0.70;45.70;;;;;;5054101;28;8844;-68
2022/01/25 04:08:05;;;;;;;;;223.50;207.00;-0.50;45.90;;;;;;5054122;28;8763;-65
2022/01/25 04:10:31;;;;;;;;;218.75;184.50;-0.60;45.60;;;;;;5053977;28;8767;-63
2022/01/25 04:12:57;;;;;;;;;199.50;175.00;-0.60;46.30;;;;;;5053761;28;8811;-64
2022/01/25 04:15:23;;;;;;;;;209.50;184.00;-0.80;45.90;;;;;;5054249;28;8781;-66
2022/01/25 04:17:57;;;;;;;;;231.50;203.75;-1.20;46.50;;;;;;5053475;28;8883;-67
2022/01/25 04:20:27;;;;;;;;;212.50;187.75;-1.10;46.80;;;;;;5053818;28;8787;-66
2022/01/25 04:25:38;;;;;;;;;230.50;213.75;-1.00;46.30;;;;;;5053831;28;8774;-67
2022/01/25 04:28:04;;;;;;;;;273.00;241.25;-1.10;46.30;;;;;;5053540;28;8817;-64
2022/01/25 04:30:30;;;;;;;;;260.25;221.25;-1.00;46.30;;;;;;5053653;28;8766;-64
2022/01/25 04:33:02;;;;;;;;;303.75;260.00;-0.90;46.30;;;;;;5053960;28;8767;-65
2022/01/25 04:59:43;;;;;;;;;173.25;147.25;0.20;43.40;;;;;;5053378;28;8747;-65
2022/01/25 05:02:30;;;;;;;;;154.50;129.00;0.10;43.20;;;;;;5053483;28;8795;-66
2022/01/25 05:05:07;;;;;;;;;125.00;109.50;-0.20;44.10;;;;;;5053598;28;8747;-66
2022/01/25 05:07:45;;;;;;;;;108.75;91.00;-0.50;44.20;;;;;;5053209;28;8797;-66
2022/01/25 05:10:11;;;;;;;;;97.50;76.50;-0.40;44.50;;;;;;5053552;28;8775;-64
2022/01/25 05:15:26;;;;;;;;;99.25;77.00;-0.60;44.90;;;;;;5053343;28;8786;-68
2022/01/25 05:18:37;;;;;;;;;97.75;78.25;-0.50;45.10;;;;;;5053356;28;8876;-68
2022/01/25 05:23:29;;;;;;;;;100.50;78.75;0.10;44.60;;;;;;5053088;28;8779;-65
2022/01/25 05:25:55;;;;;;;;;109.50;92.25;0.30;43.80;;;;;;5053006;28;8755;-67
2022/01/25 05:28:21;;;;;;;;;116.00;108.25;0.30;43.50;;;;;;5053072;28;8836;-66
2022/01/25 05:30:47;;;;;;;;;107.50;82.50;0.30;44.00;;;;;;5055166;28;8754;-65
2022/01/25 05:33:13;;;;;;;;;111.00;96.00;0.30;44.10;;;;;;5057193;28;8767;-66
2022/01/25 05:35:39;;;;;;;;;138.00;121.50;0.40;43.90;;;;;;5056931;28;8771;-63
2022/01/25 05:38:05;;;;;;;;;116.50;100.50;0.40;43.70;;;;;;5056870;28;8771;-66
2022/01/25 05:40:46;;;;;;;;;142.75;131.00;0.50;44.00;;;;;;5059121;28;8814;-64
2022/01/25 05:48:21;;;;;;;;;217.75;195.25;0.40;43.60;;;;;;5064344;28;8800;-69
2022/01/25 05:50:47;;;;;;;;;285.50;251.75;-0.20;44.30;;;;;;5066145;28;9495;-67
2022/01/25 05:53:13;;;;;;;;;270.75;243.50;-0.50;45.70;;;;;;5061768;28;8776;-67
2022/01/25 05:55:39;;;;;;;;;284.50;248.25;-0.50;45.80;;;;;;5070189;28;9455;-68
2022/01/25 05:58:05;;;;;;;;;285.00;246.50;-0.70;45.90;;;;;;5073967;28;8769;-70
2022/01/25 06:00:31;;;;;;;;;292.50;251.25;-0.40;46.20;;;;;;5070318;28;9409;-66
2022/01/25 06:02:56;;;;;;;;;269.00;244.00;-0.30;45.90;;;;;;5063727;28;8807;-66
2022/01/25 06:05:23;;;;;;;;;306.75;276.50;-0.10;45.60;;;;;;5057198;28;8775;-65
2022/01/25 06:07:50;;;;;;;;;289.75;255.00;0.10;45.20;;;;;;5057780;28;9470;-65
2022/01/25 06:10:16;;;;;;;;;275.25;239.50;0.20;44.80;;;;;;5077197;28;9449;-66
2022/01/25 06:12:44;;;;;;;;;288.25;253.25;0.20;45.00;;;;;;5076353;28;9458;-65
2022/01/25 06:15:11;;;;;;;;;294.00;267.00;0.00;45.30;;;;;;5077088;28;8788;-69
2022/01/25 06:17:36;;;;;;;;;332.00;289.50;-0.20;46.80;;;;;;5077151;28;8800;-67
2022/01/25 06:20:03;;;;;;;;;344.50;308.25;-0.30;47.00;;;;;;5076922;28;8917;-69
2022/01/25 06:22:29;;;;;;;;;317.00;280.50;-0.30;46.00;;;;;;5076733;28;8816;-68
2022/01/25 06:24:54;;;;;;;;;298.25;264.50;-0.30;45.90;;;;;;5076796;28;8780;-68
2022/01/25 06:27:20;;;;;;;;;325.25;280.50;-0.30;46.00;;;;;;5076832;28;8897;-66
2022/01/25 06:29:47;;;;;;;;;327.50;296.50;-0.10;46.00;;;;;;5076842;28;8753;-66
2022/01/25 06:32:13;;;;;;;;;352.75;299.25;0.00;45.60;;;;;;5076933;28;8768;-64
2022/01/25 06:34:39;;;;;;;;;370.75;320.00;0.10;45.20;;;;;;5076679;28;8769;-62
2022/01/25 06:37:05;;;;;;;;;385.25;356.75;0.20;44.90;;;;;;5076848;28;8768;-66
2022/01/25 06:39:31;;;;;;;;;430.75;373.25;0.10;45.10;;;;;;5076542;28;8806;-66
2022/01/25 06:41:56;;;;;;;;;460.25;406.50;0.10;45.20;;;;;;5075857;28;8824;-65
2022/01/25 06:44:22;;;;;;;;;414.50;356.75;0.10;45.10;;;;;;5076590;28;8806;-65
2022/01/25 06:46:48;;;;;;;;;455.50;401.25;0.10;45.10;;;;;;5076520;28;8804;-66
2022/01/25 06:49:14;;;;;;;;;461.50;396.75;-0.10;45.20;;;;;;5076460;28;8771;-66
2022/01/25 06:51:41;;;;;;;;;495.25;422.25;0.00;45.00;;;;;;5076569;28;8847;-66
2022/01/25 06:54:08;;;;;;;;;494.25;444.75;0.20;44.80;;;;;;5076521;28;8764;-65
2022/01/25 06:56:34;;;;;;;;;451.50;387.25;0.20;44.40;;;;;;5075167;28;9395;-65
2022/01/25 06:59:00;;;;;;;;;561.25;486.00;0.30;44.40;;;;;;5076430;28;8764;-66
2022/01/25 07:01:26;;;;;;;;;464.75;409.00;0.30;44.30;;;;;;5076141;28;8861;-66
2022/01/25 07:03:52;;;;;;;;;502.25;424.00;0.40;44.00;;;;;;5076092;28;8795;-67
2022/01/25 07:06:17;;;;;;;;;461.00;403.00;0.50;43.80;;;;;;5076323;28;8756;-65
2022/01/25 07:08:45;;;;;;;;;424.75;366.00;0.70;43.70;;;;;;5076285;28;8796;-66
2022/01/25 07:11:14;;;;;;;;;409.25;351.00;0.90;43.10;;;;;;5076309;28;8776;-63
2022/01/25 07:13:40;;;;;;;;;371.50;316.50;1.10;42.80;;;;;;5075788;28;8820;-65
2022/01/25 07:16:06;;;;;;;;;329.50;287.50;1.10;42.50;;;;;;5075868;28;8783;-64
2022/01/25 07:18:32;;;;;;;;;323.25;286.25;1.10;42.40;;;;;;5076047;28;8796;-65
2022/01/25 07:20:58;;;;;;;;;314.50;281.25;1.20;42.10;;;;;;5074280;28;8857;-65
2022/01/25 07:23:24;;;;;;;;;281.25;258.75;0.80;42.50;;;;;;5075714;28;8915;-64
2022/01/25 07:25:50;;;;;;;;;314.50;286.50;0.90;44.00;;;;;;5075927;28;8895;-64
2022/01/25 07:28:16;;;;;;;;;315.25;280.75;0.90;42.80;;;;;;5055485;28;8799;-66
2022/01/25 07:30:42;;;;;;;;;329.25;287.75;1.10;42.80;;;;;;5055189;28;8867;-66
2022/01/25 07:33:08;;;;;;;;;298.75;262.75;1.00;42.50;;;;;;5055563;28;8972;-64
2022/01/25 07:35:35;;;;;;;;;320.50;273.25;1.20;42.50;;;;;;5055480;28;8835;-64
2022/01/25 07:38:02;;;;;;;;;392.25;337.75;1.10;42.90;;;;;;5055139;28;8938;-65
2022/01/25 07:40:28;;;;;;;;;340.75;313.25;1.00;43.00;;;;;;5055481;28;8767;-65
2022/01/25 07:42:54;;;;;;;;;369.00;317.00;1.20;43.00;;;;;;5055281;28;8854;-64
2022/01/25 07:45:21;;;;;;;;;486.75;430.25;1.40;42.60;;;;;;5055244;28;8766;-65
2022/01/25 07:47:47;;;;;;;;;414.50;357.00;1.20;43.40;;;;;;5055372;28;8806;-66
2022/01/25 07:50:14;;;;;;;;;369.00;314.50;1.30;44.10;;;;;;5055676;28;8759;-65
2022/01/25 07:52:40;;;;;;;;;247.25;203.00;1.50;42.40;;;;;;5054582;28;8779;-64
2022/01/25 07:55:07;;;;;;;;;236.25;205.50;1.70;42.00;;;;;;5054815;28;8789;-65
2022/01/25 07:57:33;;;;;;;;;241.75;219.75;1.90;41.40;;;;;;5055232;28;9498;-64
2022/01/25 07:59:59;;;;;;;;;245.25;209.00;2.00;41.30;;;;;;5055281;28;8801;-63
2022/01/25 08:02:25;;;;;;;;;220.00;197.75;2.10;40.80;;;;;;5055168;28;9441;-66
2022/01/25 08:04:51;;;;;;;;;233.50;204.50;2.20;40.70;;;;;;5055015;28;8771;-64
2022/01/25 08:07:17;;;;;;;;;210.25;187.00;2.30;40.50;;;;;;5054909;28;8767;-65
2022/01/25 08:09:43;;;;;;;;;203.75;181.75;2.30;40.70;;;;;;5054299;28;8783;-64
2022/01/25 08:12:11;;;;;;;;;171.00;153.75;2.40;40.80;;;;;;5054625;28;8833;-63
2022/01/25 08:14:39;;;;;;;;;209.50;187.75;2.50;40.80;;;;;;5054751;28;8789;-63
2022/01/25 08:17:06;;;;;;;;;183.00;158.00;2.60;40.50;;;;;;5054710;28;8875;-64
2022/01/25 08:19:31;;;;;;;;;184.00;169.00;2.70;40.40;;;;;;5054760;28;8787;-63
2022/01/25 08:21:57;;;;;;;;;192.75;177.50;2.70;40.30;;;;;;5054787;28;8833;-64
2022/01/25 08:24:25;;;;;;;;;198.75;178.50;2.70;40.00;;;;;;5053717;28;8777;-68
2022/01/25 08:26:50;;;;;;;;;199.75;180.75;2.80;39.90;;;;;;5054601;28;8787;-67
2022/01/25 08:29:17;;;;;;;;;173.50;152.50;2.80;40.10;;;;;;5054930;28;8841;-67
2022/01/25 08:31:43;;;;;;;;;176.25;168.75;3.00;40.00;;;;;;5054741;28;9494;-65
2022/01/25 08:34:11;;;;;;;;;192.00;173.00;3.10;39.70;;;;;;5054645;28;9440;-66
2022/01/25 08:36:38;;;;;;;;;228.75;198.00;3.20;39.50;;;;;;5054363;28;8763;-66
2022/01/25 08:39:08;;;;;;;;;216.25;188.25;3.40;39.60;;;;;;5054366;28;8878;-68
2022/01/25 08:41:34;;;;;;;;;205.50;183.50;3.60;39.20;;;;;;5054604;28;8899;-66
2022/01/25 08:44:00;;;;;;;;;208.50;183.25;3.60;38.80;;;;;;5054621;28;9473;-66
2022/01/25 08:46:26;;;;;;;;;157.00;136.75;3.70;38.80;;;;;;5054458;28;8759;-65
2022/01/25 08:48:52;;;;;;;;;175.75;156.50;3.70;38.60;;;;;;5054726;28;8844;-66
2022/01/25 08:51:18;;;;;;;;;174.25;152.25;3.70;38.50;;;;;;5054456;28;9549;-67
2022/01/25 08:53:44;;;;;;;;;180.25;157.00;3.50;38.90;;;;;;5054241;28;8801;-67
2022/01/25 08:56:10;;;;;;;;;157.00;139.50;3.70;38.80;;;;;;5054264;28;8889;-68
2022/01/25 08:58:37;;;;;;;;;162.00;144.00;3.80;38.50;;;;;;5054247;28;8779;-68
2022/01/25 09:01:04;;;;;;;;;136.00;120.50;3.80;38.30;;;;;;5054365;28;8842;-66
2022/01/25 09:03:30;;;;;;;;;150.75;133.25;3.90;38.20;;;;;;5054334;28;8841;-67
2022/01/25 09:05:55;;;;;;;;;136.00;122.00;4.10;38.00;;;;;;5058425;28;8785;-68
2022/01/25 09:08:23;;;;;;;;;132.00;115.75;4.30;37.80;;;;;;5058419;28;8789;-66
2022/01/25 09:10:52;;;;;;;;;127.50;114.50;4.40;37.60;;;;;;5058617;28;8795;-66
2022/01/25 09:13:19;;;;;;;;;119.75;109.50;4.40;37.00;;;;;;5058066;28;8826;-66
2022/01/25 09:15:46;;;;;;;;;119.25;105.25;4.30;37.10;;;;;;5058073;28;8913;-65
2022/01/25 09:18:12;;;;;;;;;117.50;104.00;4.50;36.90;;;;;;5058386;28;8819;-67
2022/01/25 09:20:38;;;;;;;;;110.00;95.00;4.60;37.10;;;;;;5058059;28;9579;-66
2022/01/25 09:23:04;;;;;;;;;96.25;74.25;4.50;37.00;;;;;;5058168;28;9550;-67
2022/01/25 09:25:31;;;;;;;;;106.75;88.00;4.40;37.10;;;;;;5058137;28;8755;-67
2022/01/25 09:27:57;;;;;;;;;102.50;79.75;4.40;37.80;;;;;;5058190;28;8911;-67
2022/01/25 09:30:23;;;;;;;;;109.50;92.50;4.50;37.20;;;;;;5057960;28;8763;-68
2022/01/25 09:32:49;;;;;;;;;100.25;74.75;4.60;37.20;;;;;;5058128;28;8763;-66
2022/01/25 09:35:15;;;;;;;;;95.25;75.00;4.40;36.70;;;;;;5058099;28;9575;-67
2022/01/25 09:37:41;;;;;;;;;90.50;72.50;4.40;37.00;;;;;;5057800;28;8766;-68
2022/01/25 09:40:09;;;;;;;;;99.50;74.50;4.20;37.00;;;;;;5058047;28;8843;-67
2022/01/25 09:42:36;;;;;;;;;98.75;77.50;4.00;37.60;;;;;;5057597;28;8996;-67
2022/01/25 09:45:02;;;;;;;;;101.25;76.50;4.30;37.40;;;;;;5056969;28;8873;-66
2022/01/25 09:47:28;;;;;;;;;89.50;72.00;4.40;37.10;;;;;;5057771;28;8823;-67
2022/01/25 09:49:55;;;;;;;;;98.00;76.50;4.10;37.10;;;;;;5057538;28;8763;-68
2022/01/25 09:52:22;;;;;;;;;97.00;75.00;4.40;37.90;;;;;;5057755;28;8783;-67
2022/01/25 09:54:57;;;;;;;;;100.25;75.75;4.90;37.90;;;;;;5057400;28;8873;-68
2022/01/25 09:57:23;;;;;;;;;87.75;70.00;5.20;37.50;;;;;;5056367;28;8794;-68
2022/01/25 09:59:50;;;;;;;;;93.00;69.00;5.30;36.10;;;;;;5057604;28;8780;-67
2022/01/25 10:03:21;;;;;;;;;80.25;64.50;5.30;36.10;;;;;;5057439;28;8814;-66
2022/01/25 10:05:44;;;;;;;;;74.75;62.25;5.10;36.50;;;;;;5056987;28;8917;-68
2022/01/25 10:08:20;;;;;;;;;77.75;61.75;5.00;36.10;;;;;;5057446;28;9417;-68
2022/01/25 10:11:08;;;;;;;;;76.50;61.00;5.20;36.30;;;;;;5057445;28;9429;-68
2022/01/25 10:13:37;;;;;;;;;76.25;61.50;5.40;35.80;;;;;;5056887;28;8802;-68
2022/01/25 10:16:12;;;;;;;;;74.50;61.25;5.40;35.70;;;;;;5056684;28;8771;-68
2022/01/25 10:18:51;;;;;;;;;75.50;61.50;5.50;35.80;;;;;;5057433;28;8803;-66
2022/01/25 10:21:17;;;;;;;;;76.50;61.75;5.80;36.10;;;;;;5056719;28;8797;-68
2022/01/25 10:24:00;;;;;;;;;81.50;64.25;6.30;35.20;;;;;;5056155;28;8774;-66
2022/01/25 10:26:28;;;;;;;;;87.00;67.00;7.10;33.80;;;;;;5056766;28;8775;-66
2022/01/25 10:28:55;;;;;;;;;71.75;58.00;8.10;32.60;;;;;;5056693;28;8793;-67
2022/01/25 10:31:20;;;;;;;;;75.50;60.25;9.30;30.50;;;;;;5056568;28;8918;-67
2022/01/25 10:33:53;;;;;;;;;77.75;61.00;10.20;28.20;;;;;;5056641;28;8771;-67
2022/01/25 10:36:23;;;;;;;;;61.75;49.75;10.80;27.50;;;;;;5056912;28;9436;-66
2022/01/25 10:38:53;;;;;;;;;53.75;42.00;11.50;25.70;;;;;;5056608;28;8779;-66
2022/01/25 10:41:25;;;;;;;;;58.25;47.25;14.70;24.00;;;;;;5056202;28;8906;-68
2022/01/25 10:43:53;;;;;;;;;42.25;36.50;18.10;20.70;;;;;;5056516;28;8786;-68
2022/01/25 10:46:32;;;;;;;;;42.00;35.50;20.60;18.50;;;;;;5056623;28;8778;-67
2022/01/25 10:49:02;;;;;;;;;41.67;35.00;21.80;17.10;;;;;;5056862;28;8896;-65
2022/01/25 10:51:33;;;;;;;;;40.00;34.33;21.70;16.40;;;;;;5056548;28;8763;-67
2022/01/25 10:54:04;;;;;;;;;38.00;34.33;21.10;16.00;;;;;;5056610;28;8759;-65
2022/01/25 10:56:40;;;;;;;;;35.67;31.00;19.60;16.60;;;;;;5056642;28;8865;-65
2022/01/25 10:59:09;;;;;;;;;41.00;36.33;20.70;16.80;;;;;;5056307;28;8789;-65
2022/01/25 11:01:44;;;;;;;;;39.33;34.00;22.70;16.10;;;;;;5056391;28;8872;-68
2022/01/25 11:04:14;;;;;;;;;36.33;32.00;24.30;14.90;;;;;;5056411;28;8775;-67
2022/01/25 11:06:40;;;;;;;;;41.67;35.33;25.20;14.30;;;;;;5056347;28;8782;-66
2022/01/25 11:09:10;;;;;;;;;40.00;36.33;26.90;14.50;;;;;;5056305;28;9413;-68
2022/01/25 11:11:40;;;;;;;;;48.33;41.67;28.10;13.80;;;;;;5055773;28;8767;-68
2022/01/25 11:16:53;;;;;;;;;40.33;36.67;29.60;13.00;;;;;;5055744;28;8763;-66
2022/01/25 11:19:21;;;;;;;;;36.00;34.00;28.50;12.80;;;;;;5056047;28;8767;-65
2022/01/25 11:21:49;;;;;;;;;31.67;30.67;29.80;12.60;;;;;;5055745;28;8814;-66
2022/01/25 11:24:17;;;;;;;;;43.67;38.00;30.20;11.90;;;;;;5056026;28;8763;-67
2022/01/25 11:26:44;;;;;;;;;36.33;34.00;30.40;12.20;;;;;;5055931;28;8759;-65
2022/01/25 11:29:11;;;;;;;;;33.00;32.00;31.00;11.80;;;;;;5054577;28;8763;-69
2022/01/25 11:31:42;;;;;;;;;36.67;33.67;31.50;11.70;;;;;;5055566;28;8778;-68
2022/01/25 11:34:12;;;;;;;;;32.33;31.33;29.60;11.60;;;;;;5055609;28;8910;-71
2022/01/25 11:36:50;;;;;;;;;36.33;33.67;30.20;11.80;;;;;;5055379;28;8783;-69
2022/01/25 11:39:20;;;;;;;;;28.33;28.33;30.20;11.40;;;;;;5055579;28;8763;-71
2022/01/25 11:41:46;;;;;;;;;32.33;31.00;30.60;11.30;;;;;;5055427;28;8815;-69
2022/01/25 11:44:17;;;;;;;;;39.67;35.67;31.90;11.30;;;;;;5055585;28;8779;-71
2022/01/25 11:46:54;;;;;;;;;37.67;34.67;32.50;11.20;;;;;;5055213;28;8794;-68
2022/01/25 11:49:22;;;;;;;;;32.67;31.67;33.10;11.30;;;;;;5055520;28;8786;-72
2022/01/25 11:52:04;;;;;;;;;36.33;33.00;33.40;10.70;;;;;;5055429;28;8775;-72
2022/01/25 11:54:30;;;;;;;;;30.00;29.67;31.90;10.40;;;;;;5055193;28;8767;-71
2022/01/25 11:57:18;;;;;;;;;29.67;29.33;31.80;10.20;;;;;;5055053;28;11631;-74
2022/01/25 11:59:54;;;;;;;;;34.00;32.67;32.20;10.70;;;;;;5054059;28;8956;-73
2022/01/25 12:02:42;;;;;;;;;27.00;27.00;33.10;10.60;;;;;;5055007;28;8933;-70
2022/01/25 12:05:11;;;;;;;;;30.67;29.67;33.70;10.10;;;;;;5054942;28;11550;-68
2022/01/25 12:07:42;;;;;;;;;31.33;30.00;33.80;10.30;;;;;;5055281;28;8759;-71
2022/01/25 12:10:31;;;;;;;;;33.33;32.00;34.30;10.20;;;;;;5054889;28;8771;-71
2022/01/25 12:13:15;;;;;;;;;39.33;35.00;34.80;9.90;;;;;;5054679;28;8826;-69
2022/01/25 12:15:41;;;;;;;;;24.67;24.67;35.10;10.10;;;;;;5054892;28;8795;-70
2022/01/25 12:18:46;;;;;;;;;34.00;32.00;32.40;9.60;;;;;;5054643;28;11534;-70
2022/01/25 12:21:12;;;;;;;;;29.33;29.33;31.80;10.50;;;;;;5039001;28;11532;-69
2022/01/25 12:23:45;;;;;;;;;38.33;35.33;33.10;10.30;;;;;;5054678;28;8843;-72
2022/01/25 12:26:17;;;;;;;;;38.00;35.00;33.70;10.20;;;;;;5054646;28;8799;-69
2022/01/25 12:28:46;;;;;;;;;33.67;31.67;33.90;10.00;;;;;;5054649;28;8775;-72
2022/01/25 12:31:17;;;;;;;;;39.00;35.00;34.00;9.90;;;;;;5054594;28;8794;-70
2022/01/25 12:33:44;;;;;;;;;33.33;31.67;34.20;9.80;;;;;;5054716;28;8759;-69
2022/01/25 12:36:10;;;;;;;;;36.00;33.00;34.40;9.80;;;;;;5054482;28;8860;-68
2022/01/25 12:38:51;;;;;;;;;40.33;36.00;33.20;9.60;;;;;;5054162;28;8779;-65
2022/01/25 12:41:21;;;;;;;;;37.33;34.00;33.60;10.00;;;;;;5054623;28;8787;-64
2022/01/25 12:43:53;;;;;;;;;42.00;36.00;33.50;10.00;;;;;;5054666;28;8771;-65
2022/01/25 12:46:35;;;;;;;;;40.33;36.67;33.90;10.00;;;;;;5053657;28;8771;-66
2022/01/25 12:49:10;;;;;;;;;41.33;35.33;33.30;9.70;;;;;;5057032;28;9534;-64
2022/01/25 12:51:38;;;;;;;;;39.00;35.33;31.50;10.00;;;;;;5065415;28;9488;-77
2022/01/25 12:54:15;;;;;;;;;47.33;40.33;31.70;10.30;;;;;;5054260;28;8747;-67
2022/01/25 12:56:46;;;;;;;;;36.33;34.00;32.50;10.20;;;;;;5072361;28;8776;-68
2022/01/25 12:59:18;;;;;;;;;38.00;34.33;32.80;9.90;;;;;;5074084;28;8784;-68
2022/01/25 13:01:44;;;;;;;;;35.00;33.00;33.10;10.70;;;;;;5074074;28;9450;-68
2022/01/25 13:04:11;;;;;;;;;37.00;34.00;31.40;10.00;;;;;;5074062;28;8923;-67
2022/01/25 13:06:51;;;;;;;;;40.33;36.67;31.50;10.20;;;;;;5074182;28;8949;-67
2022/01/25 13:09:25;;;;;;;;;44.67;39.00;32.00;10.30;;;;;;5074303;28;9469;-69
2022/01/25 13:16:55;;;;;;;;;38.00;34.33;30.50;10.50;;;;;;5073985;28;8765;-69
2022/01/25 13:19:26;;;;;;;;;38.00;34.00;30.90;10.40;;;;;;5073969;28;8773;-69
2022/01/25 13:22:00;;;;;;;;;44.00;38.33;30.80;10.30;;;;;;5073956;28;8808;-70
2022/01/25 13:24:32;;;;;;;;;39.67;35.67;30.30;11.10;;;;;;5074216;28;8780;-71
2022/01/25 13:27:01;;;;;;;;;43.00;37.67;30.20;11.10;;;;;;5073958;28;8768;-69
2022/01/25 13:32:30;;;;;;;;;38.33;35.00;29.90;11.10;;;;;;5074043;28;8776;-67
2022/01/25 13:35:25;;;;;;;;;39.00;35.00;29.70;11.20;;;;;;5074019;28;9429;-68
2022/01/25 13:38:11;;;;;;;;;43.00;37.00;29.00;10.50;;;;;;5068170;28;8846;-66
2022/01/25 13:40:50;;;;;;;;;46.00;39.67;28.90;11.10;;;;;;5070333;28;9419;-66
2022/01/25 13:46:34;;;;;;;;;40.00;35.67;28.10;10.60;;;;;;5064948;28;8800;-66
2022/01/25 13:49:06;;;;;;;;;44.00;38.00;27.20;11.70;;;;;;5074101;28;8919;-65
2022/01/25 13:51:45;;;;;;;;;39.67;36.33;25.90;11.70;;;;;;5075120;28;8796;-68
2022/01/25 13:54:17;;;;;;;;;45.33;39.33;25.60;11.90;;;;;;5071128;28;8883;-67
2022/01/25 13:56:44;;;;;;;;;45.00;39.00;25.70;11.90;;;;;;5065610;28;8776;-68
2022/01/25 13:59:11;;;;;;;;;47.33;41.00;24.90;12.00;;;;;;5074416;28;8795;-72
2022/01/25 14:01:39;;;;;;;;;45.67;39.00;24.60;12.50;;;;;;5062015;28;8917;-63
2022/01/25 14:04:14;;;;;;;;;47.00;40.33;24.60;12.60;;;;;;5068026;28;8771;-62
2022/01/25 14:06:42;;;;;;;;;55.50;47.25;24.80;12.40;;;;;;5065805;28;8775;-64
2022/01/25 14:09:15;;;;;;;;;47.33;40.67;23.70;12.80;;;;;;5057801;28;8810;-64
